sensor_id;sensor_type;location;lat;lon;timestamp;temperature;humidity
20325;DHT22;10320;49.482;11.256;2022-08-19T07:18:34;29.60;88.10
20325;DHT22;10320;49.482;11.256;2022-08-19T07:21:09;20.90;99.90
20325;DHT22;10320;49.482;11.256;2022-08-19T07:23:36;20.70;99.90
20325;DHT22;10320;49.482;11.256;2022-08-19T07:26:10;20.50;99.90
20325;DHT22;10320;49.482;11.256;2022-08-19T07:28:37;20.50;99.90
20325;DHT22;10320;49.482;11.256;2022-08-19T07:31:06;20.40;99.90
20325;DHT22;10320;49.482;11.256;2022-08-19T07:33:32;20.40;99.90
20325;DHT22;10320;49.482;11.256;2022-08-19T07:36:01;20.40;99.90
20325;DHT22;10320;49.482;11.256;2022-08-19T07:38:26;20.40;99.90
20325;DHT22;10320;49.482;11.256;2022-08-19T07:40:52;20.40;99.90
20325;DHT22;10320;49.482;11.256;2022-08-19T07:43:19;20.50;99.90
20325;DHT22;10320;49.482;11.256;2022-08-19T07:45:46;20.50;99.90
20325;DHT22;10320;49.482;11.256;2022-08-19T07:48:12;20.50;99.90
20325;DHT22;10320;49.482;11.256;2022-08-19T07:50:39;20.60;99.90
20325;DHT22;10320;49.482;11.256;2022-08-19T07:53:05;20.60;99.90
20325;DHT22;10320;49.482;11.256;2022-08-19T07:55:30;20.80;99.90
20325;DHT22;10320;49.482;11.256;2022-08-19T07:57:56;20.90;99.90
20325;DHT22;10320;49.482;11.256;2022-08-19T08:00:22;21.00;99.90
20325;DHT22;10320;49.482;11.256;2022-08-19T08:02:48;21.00;99.90
20325;DHT22;10320;49.482;11.256;2022-08-19T08:05:13;21.30;99.90
20325;DHT22;10320;49.482;11.256;2022-08-19T08:07:57;21.30;99.90
20325;DHT22;10320;49.482;11.256;2022-08-19T08:10:42;21.20;99.90
20325;DHT22;10320;49.482;11.256;2022-08-19T08:13:08;21.10;99.90
20325;DHT22;10320;49.482;11.256;2022-08-19T08:15:34;21.10;99.90
20325;DHT22;10320;49.482;11.256;2022-08-19T08:18:00;21.00;99.90
20325;DHT22;10320;49.482;11.256;2022-08-19T08:20:26;21.00;99.90
20325;DHT22;10320;49.482;11.256;2022-08-19T08:22:51;21.00;99.90
20325;DHT22;10320;49.482;11.256;2022-08-19T08:25:36;20.90;99.90
20325;DHT22;10320;49.482;11.256;2022-08-19T08:28:04;20.90;99.90
20325;DHT22;10320;49.482;11.256;2022-08-19T08:30:31;20.80;99.90
20325;DHT22;10320;49.482;11.256;2022-08-19T08:32:58;20.70;99.90
20325;DHT22;10320;49.482;11.256;2022-08-19T08:35:24;20.70;99.90
20325;DHT22;10320;49.482;11.256;2022-08-19T08:37:52;20.60;99.90
20325;DHT22;10320;49.482;11.256;2022-08-19T08:43:35;20.50;99.90
20325;DHT22;10320;49.482;11.256;2022-08-19T08:46:34;20.60;99.90
20325;DHT22;10320;49.482;11.256;2022-08-19T08:52:04;20.70;99.90
20325;DHT22;10320;49.482;11.256;2022-08-19T08:54:43;20.80;99.90
20325;DHT22;10320;49.482;11.256;2022-08-19T08:57:40;20.80;99.90
20325;DHT22;10320;49.482;11.256;2022-08-19T09:00:12;20.80;99.90
20325;DHT22;10320;49.482;11.256;2022-08-19T09:02:40;20.80;99.90
20325;DHT22;10320;49.482;11.256;2022-08-19T09:05:07;20.80;99.90
20325;DHT22;10320;49.482;11.256;2022-08-19T09:10:39;21.10;99.90
20325;DHT22;10320;49.482;11.256;2022-08-19T09:15:58;21.70;99.90
20325;DHT22;10320;49.482;11.256;2022-08-19T09:18:48;21.70;99.90
20325;DHT22;10320;49.482;11.256;2022-08-19T09:21:15;21.70;99.90
20325;DHT22;10320;49.482;11.256;2022-08-19T09:23:41;21.60;99.90
20325;DHT22;10320;49.482;11.256;2022-08-19T09:26:13;21.60;99.90
20325;DHT22;10320;49.482;11.256;2022-08-19T09:28:40;21.40;99.90
20325;DHT22;10320;49.482;11.256;2022-08-19T09:31:10;21.30;99.90
20325;DHT22;10320;49.482;11.256;2022-08-19T09:33:37;21.20;99.90
20325;DHT22;10320;49.482;11.256;2022-08-19T09:36:08;21.10;99.90
20325;DHT22;10320;49.482;11.256;2022-08-19T09:38:35;21.00;99.90
20325;DHT22;10320;49.482;11.256;2022-08-19T09:41:03;20.90;99.90
20325;DHT22;10320;49.482;11.256;2022-08-19T09:43:30;20.90;99.90
20325;DHT22;10320;49.482;11.256;2022-08-19T09:45:56;20.80;99.90
20325;DHT22;10320;49.482;11.256;2022-08-19T09:48:22;20.80;99.90
20325;DHT22;10320;49.482;11.256;2022-08-19T09:50:48;20.80;99.90
20325;DHT22;10320;49.482;11.256;2022-08-19T09:53:15;20.80;99.90
20325;DHT22;10320;49.482;11.256;2022-08-19T09:55:44;20.90;99.90
20325;DHT22;10320;49.482;11.256;2022-08-19T09:58:10;20.90;99.90
20325;DHT22;10320;49.482;11.256;2022-08-19T10:00:37;20.90;99.90
20325;DHT22;10320;49.482;11.256;2022-08-19T10:03:03;20.90;99.90
20325;DHT22;10320;49.482;11.256;2022-08-19T10:05:29;20.90;99.90
20325;DHT22;10320;49.482;11.256;2022-08-19T10:08:14;20.90;99.90
20325;DHT22;10320;49.482;11.256;2022-08-19T10:10:41;20.90;99.90
20325;DHT22;10320;49.482;11.256;2022-08-19T10:13:10;20.90;99.90
20325;DHT22;10320;49.482;11.256;2022-08-19T10:15:36;21.00;99.90
20325;DHT22;10320;49.482;11.256;2022-08-19T10:18:05;21.00;99.90
20325;DHT22;10320;49.482;11.256;2022-08-19T10:20:31;21.00;99.90
20325;DHT22;10320;49.482;11.256;2022-08-19T10:22:56;21.00;99.90
20325;DHT22;10320;49.482;11.256;2022-08-19T10:25:24;21.00;99.90
20325;DHT22;10320;49.482;11.256;2022-08-19T10:27:51;21.00;99.90
20325;DHT22;10320;49.482;11.256;2022-08-19T10:30:17;21.00;99.90
20325;DHT22;10320;49.482;11.256;2022-08-19T10:32:44;20.90;99.90
20325;DHT22;10320;49.482;11.256;2022-08-19T10:35:12;20.80;99.90
20325;DHT22;10320;49.482;11.256;2022-08-19T10:37:38;20.70;99.90
20325;DHT22;10320;49.482;11.256;2022-08-19T10:40:06;20.70;99.90
20325;DHT22;10320;49.482;11.256;2022-08-19T10:42:34;20.60;99.90
20325;DHT22;10320;49.482;11.256;2022-08-19T10:45:00;20.60;99.90
20325;DHT22;10320;49.482;11.256;2022-08-19T10:47:26;20.60;99.90
20325;DHT22;10320;49.482;11.256;2022-08-19T10:49:53;20.60;99.90
20325;DHT22;10320;49.482;11.256;2022-08-19T10:52:44;20.50;99.90
20325;DHT22;10320;49.482;11.256;2022-08-19T10:55:10;20.50;99.90
20325;DHT22;10320;49.482;11.256;2022-08-19T10:57:54;20.60;99.90
20325;DHT22;10320;49.482;11.256;2022-08-19T11:00:21;20.70;99.90
20325;DHT22;10320;49.482;11.256;2022-08-19T11:02:48;20.80;99.90
20325;DHT22;10320;49.482;11.256;2022-08-19T11:05:14;20.80;99.90
20325;DHT22;10320;49.482;11.256;2022-08-19T11:07:41;20.80;99.90
20325;DHT22;10320;49.482;11.256;2022-08-19T11:10:09;20.90;99.90
20325;DHT22;10320;49.482;11.256;2022-08-19T11:12:37;20.80;99.90
20325;DHT22;10320;49.482;11.256;2022-08-19T11:15:09;20.80;99.90
20325;DHT22;10320;49.482;11.256;2022-08-19T11:17:39;20.80;99.90
20325;DHT22;10320;49.482;11.256;2022-08-19T11:20:10;20.80;99.90
20325;DHT22;10320;49.482;11.256;2022-08-19T11:22:36;20.80;99.90
20325;DHT22;10320;49.482;11.256;2022-08-19T11:25:02;20.80;99.90
20325;DHT22;10320;49.482;11.256;2022-08-19T11:27:28;20.50;99.90
20325;DHT22;10320;49.482;11.256;2022-08-19T11:29:54;20.30;99.90
20325;DHT22;10320;49.482;11.256;2022-08-19T11:32:20;20.10;99.90
20325;DHT22;10320;49.482;11.256;2022-08-19T11:34:46;20.00;99.90
20325;DHT22;10320;49.482;11.256;2022-08-19T11:37:11;19.90;99.90
20325;DHT22;10320;49.482;11.256;2022-08-19T11:39:37;19.80;99.90
20325;DHT22;10320;49.482;11.256;2022-08-19T11:42:05;19.80;99.90
20325;DHT22;10320;49.482;11.256;2022-08-19T11:44:51;19.80;99.90
20325;DHT22;10320;49.482;11.256;2022-08-19T11:47:17;19.80;99.90
20325;DHT22;10320;49.482;11.256;2022-08-19T11:49:43;19.90;99.90
20325;DHT22;10320;49.482;11.256;2022-08-19T11:52:09;19.90;99.90
20325;DHT22;10320;49.482;11.256;2022-08-19T11:54:36;19.90;99.90
20325;DHT22;10320;49.482;11.256;2022-08-19T11:57:05;19.90;99.90
20325;DHT22;10320;49.482;11.256;2022-08-19T11:59:30;19.90;99.90
20325;DHT22;10320;49.482;11.256;2022-08-19T12:01:56;20.00;99.90
20325;DHT22;10320;49.482;11.256;2022-08-19T12:04:23;20.00;99.90
20325;DHT22;10320;49.482;11.256;2022-08-19T12:06:48;20.00;99.90
20325;DHT22;10320;49.482;11.256;2022-08-19T12:09:15;20.00;99.90
20325;DHT22;10320;49.482;11.256;2022-08-19T12:11:42;20.00;99.90
20325;DHT22;10320;49.482;11.256;2022-08-19T12:14:12;20.00;99.90
20325;DHT22;10320;49.482;11.256;2022-08-19T12:16:39;20.00;99.90
20325;DHT22;10320;49.482;11.256;2022-08-19T12:19:06;20.00;99.90
20325;DHT22;10320;49.482;11.256;2022-08-19T12:21:34;20.00;99.90
20325;DHT22;10320;49.482;11.256;2022-08-19T12:24:01;20.10;99.90
20325;DHT22;10320;49.482;11.256;2022-08-19T12:26:29;20.10;99.90
20325;DHT22;10320;49.482;11.256;2022-08-19T12:28:56;20.20;99.90
20325;DHT22;10320;49.482;11.256;2022-08-19T12:31:25;20.20;99.90
20325;DHT22;10320;49.482;11.256;2022-08-19T12:33:51;20.30;99.90
20325;DHT22;10320;49.482;11.256;2022-08-19T12:36:18;20.30;99.90
20325;DHT22;10320;49.482;11.256;2022-08-19T12:38:43;20.30;99.90
20325;DHT22;10320;49.482;11.256;2022-08-19T12:41:12;20.30;99.90
20325;DHT22;10320;49.482;11.256;2022-08-19T12:43:38;20.30;99.90
20325;DHT22;10320;49.482;11.256;2022-08-19T12:46:05;20.30;99.90
20325;DHT22;10320;49.482;11.256;2022-08-19T12:48:32;20.40;99.90
20325;DHT22;10320;49.482;11.256;2022-08-19T12:50:58;20.40;99.90
20325;DHT22;10320;49.482;11.256;2022-08-19T12:53:23;20.50;99.90
20325;DHT22;10320;49.482;11.256;2022-08-19T12:55:57;20.60;99.90
20325;DHT22;10320;49.482;11.256;2022-08-19T12:58:23;20.80;99.90
20325;DHT22;10320;49.482;11.256;2022-08-19T13:00:49;20.90;99.90
20325;DHT22;10320;49.482;11.256;2022-08-19T13:03:15;20.90;99.90
20325;DHT22;10320;49.482;11.256;2022-08-19T13:05:41;21.00;99.90
20325;DHT22;10320;49.482;11.256;2022-08-19T13:08:07;21.10;99.90
20325;DHT22;10320;49.482;11.256;2022-08-19T13:10:35;21.10;99.90
20325;DHT22;10320;49.482;11.256;2022-08-19T13:13:03;21.10;99.90
20325;DHT22;10320;49.482;11.256;2022-08-19T13:15:34;21.10;99.90
20325;DHT22;10320;49.482;11.256;2022-08-19T13:18:01;21.10;99.90
20325;DHT22;10320;49.482;11.256;2022-08-19T13:20:28;21.00;99.90
20325;DHT22;10320;49.482;11.256;2022-08-19T13:22:54;21.00;99.90
20325;DHT22;10320;49.482;11.256;2022-08-19T13:25:20;21.00;99.90
20325;DHT22;10320;49.482;11.256;2022-08-19T13:27:47;21.10;99.90
20325;DHT22;10320;49.482;11.256;2022-08-19T13:30:15;21.00;99.90
20325;DHT22;10320;49.482;11.256;2022-08-19T13:33:00;21.00;99.90
20325;DHT22;10320;49.482;11.256;2022-08-19T13:35:43;21.00;99.90
20325;DHT22;10320;49.482;11.256;2022-08-19T13:38:10;21.00;99.90
20325;DHT22;10320;49.482;11.256;2022-08-19T13:40:36;21.00;99.90
20325;DHT22;10320;49.482;11.256;2022-08-19T13:43:03;21.00;99.90
20325;DHT22;10320;49.482;11.256;2022-08-19T13:45:31;21.00;99.90
20325;DHT22;10320;49.482;11.256;2022-08-19T13:48:01;21.00;99.90
20325;DHT22;10320;49.482;11.256;2022-08-19T13:50:30;21.00;99.90
20325;DHT22;10320;49.482;11.256;2022-08-19T13:52:59;21.10;99.90
20325;DHT22;10320;49.482;11.256;2022-08-19T13:55:25;21.00;99.90
20325;DHT22;10320;49.482;11.256;2022-08-19T13:57:56;21.00;99.90
20325;DHT22;10320;49.482;11.256;2022-08-19T14:00:24;20.90;99.90
20325;DHT22;10320;49.482;11.256;2022-08-19T14:02:53;20.80;99.90
20325;DHT22;10320;49.482;11.256;2022-08-19T14:05:20;20.80;99.90
20325;DHT22;10320;49.482;11.256;2022-08-19T14:07:46;20.80;99.90
20325;DHT22;10320;49.482;11.256;2022-08-19T14:10:13;20.70;99.90
20325;DHT22;10320;49.482;11.256;2022-08-19T14:12:40;20.60;99.90
20325;DHT22;10320;49.482;11.256;2022-08-19T14:15:07;20.40;99.90
20325;DHT22;10320;49.482;11.256;2022-08-19T14:17:34;20.20;99.90
20325;DHT22;10320;49.482;11.256;2022-08-19T14:20:04;20.10;99.90
20325;DHT22;10320;49.482;11.256;2022-08-19T14:22:36;20.00;99.90
20325;DHT22;10320;49.482;11.256;2022-08-19T14:25:03;19.90;99.90
20325;DHT22;10320;49.482;11.256;2022-08-19T14:27:29;19.90;99.90
20325;DHT22;10320;49.482;11.256;2022-08-19T14:29:55;20.00;99.90
20325;DHT22;10320;49.482;11.256;2022-08-19T14:32:20;19.90;99.90
20325;DHT22;10320;49.482;11.256;2022-08-19T14:34:47;19.90;99.90
20325;DHT22;10320;49.482;11.256;2022-08-19T14:37:13;19.80;99.90
20325;DHT22;10320;49.482;11.256;2022-08-19T14:39:40;19.80;99.90
20325;DHT22;10320;49.482;11.256;2022-08-19T14:42:08;19.80;99.90
20325;DHT22;10320;49.482;11.256;2022-08-19T14:44:34;19.70;99.90
20325;DHT22;10320;49.482;11.256;2022-08-19T14:47:00;19.70;99.90
20325;DHT22;10320;49.482;11.256;2022-08-19T14:49:25;19.70;99.90
20325;DHT22;10320;49.482;11.256;2022-08-19T14:51:51;19.70;99.90
20325;DHT22;10320;49.482;11.256;2022-08-19T14:54:17;19.70;99.90
20325;DHT22;10320;49.482;11.256;2022-08-19T14:56:43;19.60;99.90
20325;DHT22;10320;49.482;11.256;2022-08-19T14:59:09;19.60;99.90
20325;DHT22;10320;49.482;11.256;2022-08-19T15:01:35;19.60;99.90
20325;DHT22;10320;49.482;11.256;2022-08-19T15:04:01;19.50;99.90
20325;DHT22;10320;49.482;11.256;2022-08-19T15:06:27;19.50;99.90
20325;DHT22;10320;49.482;11.256;2022-08-19T15:08:53;19.50;99.90
20325;DHT22;10320;49.482;11.256;2022-08-19T15:11:22;19.40;99.90
20325;DHT22;10320;49.482;11.256;2022-08-19T15:13:49;19.50;99.90
20325;DHT22;10320;49.482;11.256;2022-08-19T15:16:15;19.50;99.90
20325;DHT22;10320;49.482;11.256;2022-08-19T15:18:42;19.50;99.90
20325;DHT22;10320;49.482;11.256;2022-08-19T15:21:11;19.50;99.90
20325;DHT22;10320;49.482;11.256;2022-08-19T15:23:38;19.40;99.90
20325;DHT22;10320;49.482;11.256;2022-08-19T15:26:04;19.40;99.90
20325;DHT22;10320;49.482;11.256;2022-08-19T15:28:32;19.30;99.90
20325;DHT22;10320;49.482;11.256;2022-08-19T15:30:58;19.40;99.90
20325;DHT22;10320;49.482;11.256;2022-08-19T15:33:24;19.30;99.90
20325;DHT22;10320;49.482;11.256;2022-08-19T15:35:50;19.30;99.90
20325;DHT22;10320;49.482;11.256;2022-08-19T15:38:17;19.30;99.90
20325;DHT22;10320;49.482;11.256;2022-08-19T15:40:48;19.20;99.90
20325;DHT22;10320;49.482;11.256;2022-08-19T15:43:15;19.20;99.90
20325;DHT22;10320;49.482;11.256;2022-08-19T15:45:41;19.20;99.90
20325;DHT22;10320;49.482;11.256;2022-08-19T15:48:07;19.20;99.90
20325;DHT22;10320;49.482;11.256;2022-08-19T15:50:33;19.20;99.90
20325;DHT22;10320;49.482;11.256;2022-08-19T15:53:02;19.20;99.90
20325;DHT22;10320;49.482;11.256;2022-08-19T15:55:31;19.20;99.90
20325;DHT22;10320;49.482;11.256;2022-08-19T15:58:06;19.20;99.90
20325;DHT22;10320;49.482;11.256;2022-08-19T16:00:51;19.10;99.90
20325;DHT22;10320;49.482;11.256;2022-08-19T16:03:36;19.00;99.90
20325;DHT22;10320;49.482;11.256;2022-08-19T16:06:20;19.00;99.90
20325;DHT22;10320;49.482;11.256;2022-08-19T16:08:58;19.00;99.90
20325;DHT22;10320;49.482;11.256;2022-08-19T16:11:27;18.90;99.90
20325;DHT22;10320;49.482;11.256;2022-08-19T16:13:55;18.90;99.90
20325;DHT22;10320;49.482;11.256;2022-08-19T16:16:24;18.90;99.90
20325;DHT22;10320;49.482;11.256;2022-08-19T16:18:53;18.80;99.90
20325;DHT22;10320;49.482;11.256;2022-08-19T16:21:20;18.70;99.90
20325;DHT22;10320;49.482;11.256;2022-08-19T16:23:47;18.70;99.90
20325;DHT22;10320;49.482;11.256;2022-08-19T16:26:15;18.70;99.90
20325;DHT22;10320;49.482;11.256;2022-08-19T16:28:42;18.70;99.90
20325;DHT22;10320;49.482;11.256;2022-08-19T16:31:08;18.60;99.90
20325;DHT22;10320;49.482;11.256;2022-08-19T16:33:34;18.60;99.90
20325;DHT22;10320;49.482;11.256;2022-08-19T16:36:00;18.60;99.90
20325;DHT22;10320;49.482;11.256;2022-08-19T16:38:26;18.60;99.90
20325;DHT22;10320;49.482;11.256;2022-08-19T16:40:52;18.60;99.90
20325;DHT22;10320;49.482;11.256;2022-08-19T16:43:23;18.50;99.90
20325;DHT22;10320;49.482;11.256;2022-08-19T16:45:51;18.50;99.90
20325;DHT22;10320;49.482;11.256;2022-08-19T16:48:26;18.50;99.90
20325;DHT22;10320;49.482;11.256;2022-08-19T16:50:55;18.40;99.90
20325;DHT22;10320;49.482;11.256;2022-08-19T16:53:24;18.40;99.90
20325;DHT22;10320;49.482;11.256;2022-08-19T16:55:57;18.40;99.90
20325;DHT22;10320;49.482;11.256;2022-08-19T16:58:25;18.30;99.90
20325;DHT22;10320;49.482;11.256;2022-08-19T17:00:53;18.30;99.90
20325;DHT22;10320;49.482;11.256;2022-08-19T17:03:20;18.30;99.90
20325;DHT22;10320;49.482;11.256;2022-08-19T17:05:51;18.30;99.90
20325;DHT22;10320;49.482;11.256;2022-08-19T17:08:19;18.30;99.90
20325;DHT22;10320;49.482;11.256;2022-08-19T17:10:46;18.20;99.90
20325;DHT22;10320;49.482;11.256;2022-08-19T17:13:12;18.30;99.90
20325;DHT22;10320;49.482;11.256;2022-08-19T17:15:43;18.30;99.90
20325;DHT22;10320;49.482;11.256;2022-08-19T17:18:11;18.30;99.90
20325;DHT22;10320;49.482;11.256;2022-08-19T17:20:38;18.30;99.90
20325;DHT22;10320;49.482;11.256;2022-08-19T17:23:04;18.20;99.90
20325;DHT22;10320;49.482;11.256;2022-08-19T17:25:31;18.20;99.90
20325;DHT22;10320;49.482;11.256;2022-08-19T17:28:04;18.10;99.90
20325;DHT22;10320;49.482;11.256;2022-08-19T17:30:31;18.20;99.90
20325;DHT22;10320;49.482;11.256;2022-08-19T17:32:56;18.10;99.90
20325;DHT22;10320;49.482;11.256;2022-08-19T17:35:22;18.10;99.90
20325;DHT22;10320;49.482;11.256;2022-08-19T17:37:48;18.10;99.90
20325;DHT22;10320;49.482;11.256;2022-08-19T17:40:16;18.10;99.90
20325;DHT22;10320;49.482;11.256;2022-08-19T17:42:43;18.00;99.90
20325;DHT22;10320;49.482;11.256;2022-08-19T17:45:10;18.00;99.90
20325;DHT22;10320;49.482;11.256;2022-08-19T17:47:36;17.90;99.90
20325;DHT22;10320;49.482;11.256;2022-08-19T17:50:06;17.90;99.90
20325;DHT22;10320;49.482;11.256;2022-08-19T17:52:32;17.90;99.90
20325;DHT22;10320;49.482;11.256;2022-08-19T17:54:58;17.90;99.90
20325;DHT22;10320;49.482;11.256;2022-08-19T17:57:24;17.90;99.90
20325;DHT22;10320;49.482;11.256;2022-08-19T17:59:50;17.90;99.90
20325;DHT22;10320;49.482;11.256;2022-08-19T18:02:16;17.80;99.90
20325;DHT22;10320;49.482;11.256;2022-08-19T18:04:42;17.90;99.90
20325;DHT22;10320;49.482;11.256;2022-08-19T18:07:08;17.80;99.90
20325;DHT22;10320;49.482;11.256;2022-08-19T18:09:37;17.80;99.90
20325;DHT22;10320;49.482;11.256;2022-08-19T18:12:04;17.70;99.90
20325;DHT22;10320;49.482;11.256;2022-08-19T18:14:33;17.70;99.90
20325;DHT22;10320;49.482;11.256;2022-08-19T18:17:05;17.70;99.90
20325;DHT22;10320;49.482;11.256;2022-08-19T18:19:35;17.70;99.90
20325;DHT22;10320;49.482;11.256;2022-08-19T18:22:02;17.70;99.90
20325;DHT22;10320;49.482;11.256;2022-08-19T18:24:27;17.60;99.90
20325;DHT22;10320;49.482;11.256;2022-08-19T18:26:53;17.60;99.90
20325;DHT22;10320;49.482;11.256;2022-08-19T18:29:19;17.60;99.90
20325;DHT22;10320;49.482;11.256;2022-08-19T18:31:44;17.60;99.90
20325;DHT22;10320;49.482;11.256;2022-08-19T18:34:13;17.70;99.90
20325;DHT22;10320;49.482;11.256;2022-08-19T18:36:39;17.70;99.90
20325;DHT22;10320;49.482;11.256;2022-08-19T18:39:08;17.70;99.90
20325;DHT22;10320;49.482;11.256;2022-08-19T18:41:52;17.60;99.90
20325;DHT22;10320;49.482;11.256;2022-08-19T18:44:36;17.70;99.90
20325;DHT22;10320;49.482;11.256;2022-08-19T18:47:21;17.60;99.90
20325;DHT22;10320;49.482;11.256;2022-08-19T18:50:06;17.50;99.90
20325;DHT22;10320;49.482;11.256;2022-08-19T18:52:38;17.40;99.90
20325;DHT22;10320;49.482;11.256;2022-08-19T18:55:05;17.50;99.90
20325;DHT22;10320;49.482;11.256;2022-08-19T18:57:32;17.50;99.90
20325;DHT22;10320;49.482;11.256;2022-08-19T18:59:58;17.50;99.90
20325;DHT22;10320;49.482;11.256;2022-08-19T19:02:24;17.40;99.90
20325;DHT22;10320;49.482;11.256;2022-08-19T19:04:53;17.30;99.90
20325;DHT22;10320;49.482;11.256;2022-08-19T19:07:20;17.40;99.90
20325;DHT22;10320;49.482;11.256;2022-08-19T19:09:47;17.40;99.90
20325;DHT22;10320;49.482;11.256;2022-08-19T19:12:15;17.30;99.90
20325;DHT22;10320;49.482;11.256;2022-08-19T19:14:43;17.30;99.90
20325;DHT22;10320;49.482;11.256;2022-08-19T19:17:12;17.30;99.90
20325;DHT22;10320;49.482;11.256;2022-08-19T19:19:42;17.30;99.90
20325;DHT22;10320;49.482;11.256;2022-08-19T19:22:19;17.30;99.90
20325;DHT22;10320;49.482;11.256;2022-08-19T19:24:46;17.30;99.90
20325;DHT22;10320;49.482;11.256;2022-08-19T19:27:14;17.30;99.90
20325;DHT22;10320;49.482;11.256;2022-08-19T19:29:42;17.30;99.90
20325;DHT22;10320;49.482;11.256;2022-08-19T19:34:45;17.30;99.90
20325;DHT22;10320;49.482;11.256;2022-08-19T19:37:11;17.20;99.90
20325;DHT22;10320;49.482;11.256;2022-08-19T19:39:38;17.20;99.90
20325;DHT22;10320;49.482;11.256;2022-08-19T19:42:11;17.20;99.90
20325;DHT22;10320;49.482;11.256;2022-08-19T19:44:41;17.20;99.90
20325;DHT22;10320;49.482;11.256;2022-08-19T19:47:09;17.20;99.90
20325;DHT22;10320;49.482;11.256;2022-08-19T19:49:35;17.20;99.90
20325;DHT22;10320;49.482;11.256;2022-08-19T19:52:02;17.10;99.90
20325;DHT22;10320;49.482;11.256;2022-08-19T19:54:28;17.10;99.90
20325;DHT22;10320;49.482;11.256;2022-08-19T19:56:54;17.20;99.90
20325;DHT22;10320;49.482;11.256;2022-08-19T19:59:20;17.20;99.90
20325;DHT22;10320;49.482;11.256;2022-08-19T20:01:45;17.10;99.90
20325;DHT22;10320;49.482;11.256;2022-08-19T20:04:15;17.10;99.90
20325;DHT22;10320;49.482;11.256;2022-08-19T20:06:42;17.10;99.90
20325;DHT22;10320;49.482;11.256;2022-08-19T20:09:08;17.00;99.90
20325;DHT22;10320;49.482;11.256;2022-08-19T20:11:44;16.90;99.90
20325;DHT22;10320;49.482;11.256;2022-08-19T20:14:16;16.90;99.90
20325;DHT22;10320;49.482;11.256;2022-08-19T20:16:43;16.80;99.90
20325;DHT22;10320;49.482;11.256;2022-08-19T20:19:12;16.90;99.90
20325;DHT22;10320;49.482;11.256;2022-08-19T20:21:40;16.80;99.90
20325;DHT22;10320;49.482;11.256;2022-08-19T20:24:10;16.80;99.90
20325;DHT22;10320;49.482;11.256;2022-08-19T20:26:38;16.80;99.90
20325;DHT22;10320;49.482;11.256;2022-08-19T20:29:04;16.80;99.90
20325;DHT22;10320;49.482;11.256;2022-08-19T20:31:29;16.80;99.90
20325;DHT22;10320;49.482;11.256;2022-08-19T20:33:55;16.80;99.90
20325;DHT22;10320;49.482;11.256;2022-08-19T20:36:21;16.80;99.90
20325;DHT22;10320;49.482;11.256;2022-08-19T20:38:49;16.80;99.90
20325;DHT22;10320;49.482;11.256;2022-08-19T20:41:15;16.80;99.90
20325;DHT22;10320;49.482;11.256;2022-08-19T20:43:42;16.80;99.90
20325;DHT22;10320;49.482;11.256;2022-08-19T20:46:08;16.80;99.90
20325;DHT22;10320;49.482;11.256;2022-08-19T20:48:34;16.80;99.90
20325;DHT22;10320;49.482;11.256;2022-08-19T20:51:05;16.80;99.90
20325;DHT22;10320;49.482;11.256;2022-08-19T20:53:33;16.70;99.90
20325;DHT22;10320;49.482;11.256;2022-08-19T20:55:58;16.70;99.90
20325;DHT22;10320;49.482;11.256;2022-08-19T20:58:25;16.70;99.90
20325;DHT22;10320;49.482;11.256;2022-08-19T21:00:52;16.70;99.90
20325;DHT22;10320;49.482;11.256;2022-08-19T21:03:23;16.70;99.90
20325;DHT22;10320;49.482;11.256;2022-08-19T21:05:49;16.70;99.90
20325;DHT22;10320;49.482;11.256;2022-08-19T21:08:15;16.70;99.90
20325;DHT22;10320;49.482;11.256;2022-08-19T21:10:49;16.70;99.90
20325;DHT22;10320;49.482;11.256;2022-08-19T21:13:16;16.60;99.90
20325;DHT22;10320;49.482;11.256;2022-08-19T21:15:42;16.60;99.90
20325;DHT22;10320;49.482;11.256;2022-08-19T21:18:10;16.60;99.90
20325;DHT22;10320;49.482;11.256;2022-08-19T21:20:37;16.70;99.90
20325;DHT22;10320;49.482;11.256;2022-08-19T21:23:09;16.70;99.90
20325;DHT22;10320;49.482;11.256;2022-08-19T21:25:35;16.70;99.90
20325;DHT22;10320;49.482;11.256;2022-08-19T21:28:01;16.70;99.90
20325;DHT22;10320;49.482;11.256;2022-08-19T21:30:27;16.70;99.90
20325;DHT22;10320;49.482;11.256;2022-08-19T21:32:54;16.70;99.90
20325;DHT22;10320;49.482;11.256;2022-08-19T21:35:21;16.70;99.90
20325;DHT22;10320;49.482;11.256;2022-08-19T21:37:48;16.70;99.90
20325;DHT22;10320;49.482;11.256;2022-08-19T21:40:15;16.60;99.90
20325;DHT22;10320;49.482;11.256;2022-08-19T21:42:42;16.60;99.90
20325;DHT22;10320;49.482;11.256;2022-08-19T21:45:08;16.70;99.90
20325;DHT22;10320;49.482;11.256;2022-08-19T21:47:35;16.70;99.90
20325;DHT22;10320;49.482;11.256;2022-08-19T21:50:02;16.70;99.90
20325;DHT22;10320;49.482;11.256;2022-08-19T21:52:28;16.70;99.90
20325;DHT22;10320;49.482;11.256;2022-08-19T21:54:55;16.70;99.90
20325;DHT22;10320;49.482;11.256;2022-08-19T21:57:22;16.70;99.90
20325;DHT22;10320;49.482;11.256;2022-08-19T21:59:49;16.60;99.90
20325;DHT22;10320;49.482;11.256;2022-08-19T22:02:15;16.60;99.90
20325;DHT22;10320;49.482;11.256;2022-08-19T22:04:42;16.60;99.90
20325;DHT22;10320;49.482;11.256;2022-08-19T22:07:09;16.60;99.90
20325;DHT22;10320;49.482;11.256;2022-08-19T22:09:39;16.60;99.90
20325;DHT22;10320;49.482;11.256;2022-08-19T22:12:09;16.60;99.90
20325;DHT22;10320;49.482;11.256;2022-08-19T22:14:36;16.60;99.90
20325;DHT22;10320;49.482;11.256;2022-08-19T22:17:02;16.60;99.90
20325;DHT22;10320;49.482;11.256;2022-08-19T22:19:28;16.60;99.90
20325;DHT22;10320;49.482;11.256;2022-08-19T22:21:55;16.60;99.90
20325;DHT22;10320;49.482;11.256;2022-08-19T22:24:23;16.60;99.90
20325;DHT22;10320;49.482;11.256;2022-08-19T22:26:49;16.60;99.90
20325;DHT22;10320;49.482;11.256;2022-08-19T22:29:15;16.50;99.90
20325;DHT22;10320;49.482;11.256;2022-08-19T22:31:42;16.60;99.90
20325;DHT22;10320;49.482;11.256;2022-08-19T22:34:07;16.60;99.90
20325;DHT22;10320;49.482;11.256;2022-08-19T22:36:35;16.60;99.90
20325;DHT22;10320;49.482;11.256;2022-08-19T22:39:00;16.60;99.90
20325;DHT22;10320;49.482;11.256;2022-08-19T22:41:26;16.50;99.90
20325;DHT22;10320;49.482;11.256;2022-08-19T22:43:52;16.50;99.90
20325;DHT22;10320;49.482;11.256;2022-08-19T22:46:18;16.50;99.90
20325;DHT22;10320;49.482;11.256;2022-08-19T22:48:45;16.50;99.90
20325;DHT22;10320;49.482;11.256;2022-08-19T22:51:11;16.50;99.90
20325;DHT22;10320;49.482;11.256;2022-08-19T22:53:55;16.50;99.90